Waterford, Michigan
Current Conditions -  °F | °C
As of 11:53 AM on Saturday 25 Oct 2014 (Local Time) from KPTK Reporting Station
Haze Haze  
Wind Chill: 57°   Ceiling: 1200
Heat Index: 57°   Visibility: 6mi
Dew Point: 50°   Wind: 15mph
Humidity: 77%   Direction: 280°W
Pressure: 29.79"   Gusts: 26mph
Location:  42.67°N, 83.39°W
Report Text: KPTK 251553Z 28013G23KT 6SM HZ BKN012 OVC018 14/10 A2979 RMK AO2 SLP088 T01390100
Loading
Personal Weather Stations






























Interactive Weather Map
Tropical Storm Tracking
New forecast layout! Learn more

10-Day Weather Forecast

Advertisements
Track Severe Weather on mobile